createdAt,value
2018-12-19T00:00:55.039Z,9.83
2018-12-19T00:03:23.908Z,10.23
2018-12-19T00:05:52.025Z,9.57
2018-12-19T00:08:20.523Z,11.03
2018-12-19T00:10:50.059Z,10.87
2018-12-19T00:13:19.969Z,11.20
2018-12-19T00:15:48.299Z,10.57
2018-12-19T00:18:17.207Z,10.40
2018-12-19T00:20:45.963Z,9.47
2018-12-19T00:23:14.551Z,10.70
2018-12-19T00:25:42.867Z,10.40
2018-12-19T00:28:11.275Z,10.70
2018-12-19T00:30:40.867Z,11.43
2018-12-19T00:33:09.814Z,10.50
2018-12-19T00:35:38.033Z,9.98
2018-12-19T00:38:08.283Z,10.27
2018-12-19T00:40:37.679Z,9.75
2018-12-19T00:43:06.218Z,10.40
2018-12-19T00:45:34.597Z,9.90
2018-12-19T00:48:03.087Z,10.13
2018-12-19T00:50:31.577Z,9.70
2018-12-19T00:53:00.422Z,12.07
2018-12-19T00:55:29.556Z,11.70
2018-12-19T00:57:57.857Z,11.40
2018-12-19T01:05:25.972Z,10.27
2018-12-19T01:07:55.568Z,10.83
2018-12-19T01:10:24.243Z,11.10
2018-12-19T01:12:53.727Z,11.17
2018-12-19T01:15:22.739Z,11.70
2018-12-19T01:17:50.817Z,11.57
2018-12-19T01:20:19.127Z,10.40
2018-12-19T01:22:48.515Z,11.27
2018-12-19T01:25:17.390Z,12.83
2018-12-19T01:27:47.031Z,11.17
2018-12-19T01:30:16.491Z,12.00
2018-12-19T01:32:44.981Z,11.30
2018-12-19T01:35:14.679Z,12.23
2018-12-19T01:37:43.751Z,11.45
2018-12-19T01:40:12.673Z,12.07
2018-12-19T01:42:41.238Z,10.25
2018-12-19T01:45:09.519Z,11.30
2018-12-19T01:47:42.079Z,10.77
2018-12-19T01:50:10.283Z,10.37
2018-12-19T01:52:39.244Z,10.77
2018-12-19T01:55:08.240Z,11.17
2018-12-19T01:57:36.463Z,11.90
2018-12-19T02:00:05.093Z,11.50
2018-12-19T02:02:33.460Z,12.37
2018-12-19T02:05:01.694Z,11.13
2018-12-19T02:07:31.799Z,12.07
2018-12-19T02:10:00.859Z,11.87
2018-12-19T02:12:29.055Z,10.63
2018-12-19T02:14:57.267Z,11.83
2018-12-19T02:17:26.331Z,10.70
2018-12-19T02:19:54.527Z,11.27
2018-12-19T02:22:23.715Z,11.27
2018-12-19T02:24:52.064Z,10.10
2018-12-19T02:27:20.136Z,10.17
2018-12-19T02:29:49.431Z,11.33
2018-12-19T02:32:18.147Z,11.93
2018-12-19T02:34:46.299Z,10.77
2018-12-19T02:37:15.311Z,10.33
2018-12-19T02:39:43.758Z,10.87
2018-12-19T02:42:14.276Z,9.93
2018-12-19T02:44:42.555Z,9.28
2018-12-19T02:47:10.992Z,10.00
2018-12-19T02:49:39.164Z,10.83
2018-12-19T02:52:07.404Z,10.50
2018-12-19T02:54:37.790Z,10.15
2018-12-19T02:57:06.683Z,11.00
2018-12-19T02:59:35.732Z,11.00
2018-12-19T03:02:04.897Z,11.60
2018-12-19T03:04:33.581Z,11.23
2018-12-19T03:07:02.928Z,11.20
2018-12-19T03:09:32.308Z,11.47
2018-12-19T03:12:01.532Z,10.20
2018-12-19T03:14:30.723Z,11.23
2018-12-19T03:16:58.892Z,11.57
2018-12-19T03:19:27.015Z,9.87
2018-12-19T03:21:55.215Z,10.47
2018-12-19T03:24:24.283Z,11.33
2018-12-19T03:26:53.212Z,12.20
2018-12-19T03:29:21.662Z,11.67
2018-12-19T03:31:51.264Z,10.67
2018-12-19T03:34:20.296Z,11.70
2018-12-19T03:36:49.345Z,11.43
2018-12-19T03:39:18.215Z,11.90
2018-12-19T03:41:47.475Z,10.47
2018-12-19T03:44:16.796Z,12.27
2018-12-19T03:46:45.278Z,11.23
2018-12-19T03:49:16.192Z,11.47
2018-12-19T03:51:44.687Z,13.13
2018-12-19T03:54:13.994Z,12.17
2018-12-19T03:56:43.682Z,12.20
2018-12-19T03:59:11.763Z,11.80
2018-12-19T04:01:41.257Z,11.77
2018-12-19T04:04:09.659Z,12.00
2018-12-19T04:06:38.308Z,12.00
2018-12-19T04:09:07.072Z,12.03
2018-12-19T04:11:35.513Z,11.37
2018-12-19T04:14:05.408Z,11.93
2018-12-19T04:16:33.819Z,11.77
2018-12-19T04:19:02.032Z,11.53
2018-12-19T04:21:30.715Z,11.43
2018-12-19T04:24:00.167Z,11.48
2018-12-19T04:26:29.263Z,10.77
2018-12-19T04:28:57.515Z,10.70
2018-12-19T04:31:26.122Z,9.88
2018-12-19T04:33:54.331Z,11.03
2018-12-19T04:36:23.386Z,11.13
2018-12-19T04:38:51.547Z,11.15
2018-12-19T04:41:20.839Z,11.13
2018-12-19T04:43:49.172Z,11.48
2018-12-19T04:46:19.002Z,10.80
2018-12-19T04:48:47.301Z,10.75
2018-12-19T04:51:17.050Z,10.67
2018-12-19T04:53:45.460Z,10.35
2018-12-19T04:56:14.375Z,10.90
2018-12-19T04:58:42.415Z,11.33
2018-12-19T05:01:10.683Z,11.40
2018-12-19T05:03:39.135Z,10.60
2018-12-19T05:06:08.374Z,11.23
2018-12-19T05:08:36.651Z,10.40
2018-12-19T05:11:06.193Z,10.70
2018-12-19T05:13:34.659Z,11.73
2018-12-19T05:16:04.065Z,10.10
2018-12-19T05:18:32.571Z,10.63
2018-12-19T05:21:03.324Z,10.47
2018-12-19T05:23:31.624Z,9.47
2018-12-19T05:26:00.629Z,10.70
2018-12-19T05:28:29.577Z,10.00
2018-12-19T05:30:57.813Z,10.63
2018-12-19T05:33:26.228Z,10.80
2018-12-19T05:35:54.541Z,9.30
2018-12-19T05:38:22.929Z,10.33
2018-12-19T05:40:52.204Z,10.45
2018-12-19T05:43:20.767Z,9.97
2018-12-19T05:45:49.344Z,10.25
2018-12-19T05:48:17.751Z,8.83
2018-12-19T05:50:46.966Z,10.50
2018-12-19T05:53:15.685Z,10.00
2018-12-19T05:55:43.859Z,10.28
2018-12-19T05:58:12.571Z,9.10
2018-12-19T06:00:41.221Z,9.63
2018-12-19T06:03:09.973Z,10.00
2018-12-19T06:05:38.080Z,9.93
2018-12-19T06:08:06.907Z,8.70
2018-12-19T06:10:35.579Z,9.07
2018-12-19T06:13:04.943Z,9.53
2018-12-19T06:15:33.884Z,10.83
2018-12-19T06:18:03.462Z,9.17
2018-12-19T06:20:32.059Z,9.60
2018-12-19T06:23:01.603Z,10.28
2018-12-19T06:25:30.556Z,9.83
2018-12-19T06:28:01.516Z,9.40
2018-12-19T06:30:31.568Z,10.27
2018-12-19T06:33:00.533Z,9.93
2018-12-19T06:35:29.280Z,9.80
2018-12-19T06:37:59.227Z,10.10
2018-12-19T06:40:32.645Z,9.80
2018-12-19T06:42:58.066Z,9.87
2018-12-19T06:45:26.847Z,10.00
2018-12-19T06:47:55.459Z,9.50
2018-12-19T06:50:24.495Z,9.63
2018-12-19T06:52:53.942Z,9.37
2018-12-19T06:55:22.159Z,11.70
2018-12-19T06:57:50.463Z,10.73
2018-12-19T07:00:18.708Z,9.50
2018-12-19T07:02:47.535Z,10.17
2018-12-19T07:05:16.180Z,10.03
2018-12-19T07:07:46.190Z,10.10
2018-12-19T07:10:15.628Z,10.10
2018-12-19T07:12:44.427Z,9.17
2018-12-19T07:15:12.555Z,9.40
2018-12-19T07:17:43.611Z,9.80
2018-12-19T07:20:12.495Z,9.77
2018-12-19T07:22:42.008Z,9.57
2018-12-19T07:25:11.087Z,9.73
2018-12-19T07:27:40.430Z,8.40
2018-12-19T07:30:09.231Z,8.70
2018-12-19T07:32:37.965Z,8.80
2018-12-19T07:35:06.516Z,9.37
2018-12-19T07:37:34.977Z,8.50
2018-12-19T07:40:04.070Z,9.03
2018-12-19T07:42:32.371Z,8.60
2018-12-19T07:45:00.431Z,9.67
2018-12-19T07:47:28.779Z,8.77
2018-12-19T07:49:57.155Z,8.60
2018-12-19T07:53:29.496Z,8.63
2018-12-19T07:55:59.628Z,9.30
2018-12-19T07:58:27.694Z,9.10
2018-12-19T08:00:56.703Z,8.37
2018-12-19T08:03:25.756Z,8.57
2018-12-19T08:05:53.815Z,8.37
2018-12-19T08:08:23.840Z,8.00
2018-12-19T08:10:53.252Z,8.70
2018-12-19T08:13:21.447Z,8.03
2018-12-19T08:15:50.470Z,8.23
2018-12-19T08:18:18.922Z,8.00
2018-12-19T08:20:47.163Z,8.23
2018-12-19T08:23:15.263Z,8.27
2018-12-19T08:25:43.434Z,8.13
2018-12-19T08:28:11.750Z,8.20
2018-12-19T08:30:40.527Z,9.40
2018-12-19T08:33:09.372Z,7.73
2018-12-19T08:35:37.589Z,9.07
2018-12-19T08:38:06.300Z,9.10
2018-12-19T08:40:34.487Z,7.77
2018-12-19T08:43:02.978Z,8.30
2018-12-19T08:45:31.339Z,8.67
2018-12-19T08:48:00.580Z,8.47
2018-12-19T08:50:28.863Z,8.67
2018-12-19T08:52:57.071Z,8.60
2018-12-19T08:55:25.455Z,8.43
2018-12-19T08:57:54.247Z,7.30
2018-12-19T09:00:22.412Z,8.53
2018-12-19T09:02:51.858Z,8.53
2018-12-19T09:05:19.939Z,8.50
2018-12-19T09:07:48.235Z,6.07
2018-12-19T09:10:16.456Z,7.30
2018-12-19T09:12:44.712Z,7.63
2018-12-19T09:15:14.987Z,7.43
2018-12-19T09:17:43.079Z,7.97
2018-12-19T09:20:13.636Z,7.93
2018-12-19T09:22:41.867Z,6.90
2018-12-19T09:25:09.984Z,7.67
2018-12-19T09:27:38.204Z,7.23
2018-12-19T09:30:07.304Z,7.20
2018-12-19T09:32:35.528Z,8.10
2018-12-19T09:35:04.187Z,8.27
2018-12-19T09:37:32.655Z,7.97
2018-12-19T09:40:00.891Z,7.90
2018-12-19T09:42:29.015Z,8.53
2018-12-19T09:44:58.035Z,8.27
2018-12-19T09:47:26.201Z,8.37
2018-12-19T09:49:55.192Z,8.23
2018-12-19T09:52:24.282Z,7.63
2018-12-19T09:54:52.511Z,8.10
2018-12-19T09:57:20.952Z,8.20
2018-12-19T09:59:49.483Z,8.23
2018-12-19T10:02:18.184Z,8.57
2018-12-19T10:04:46.547Z,8.10
2018-12-19T10:07:15.295Z,7.80
2018-12-19T10:09:43.596Z,8.23
2018-12-19T10:12:11.839Z,7.70
2018-12-19T10:14:41.144Z,7.80
2018-12-19T10:17:09.399Z,8.63
2018-12-19T10:19:38.631Z,8.57
2018-12-19T10:22:07.427Z,8.53
2018-12-19T10:24:41.143Z,8.60
2018-12-19T10:27:11.231Z,8.40
2018-12-19T10:29:39.705Z,8.50
2018-12-19T10:32:07.951Z,8.47
2018-12-19T10:34:37.983Z,9.07
2018-12-19T10:37:07.514Z,7.97
2018-12-19T10:39:35.719Z,8.27
2018-12-19T10:42:04.775Z,8.70
2018-12-19T10:44:33.593Z,8.40
2018-12-19T10:48:05.171Z,8.67
2018-12-19T10:50:33.387Z,8.60
2018-12-19T10:53:01.548Z,8.13
2018-12-19T10:55:29.711Z,7.97
2018-12-19T10:57:57.890Z,8.43
2018-12-19T11:01:00.702Z,8.60
2018-12-19T11:03:29.287Z,8.07
2018-12-19T11:05:57.607Z,8.43
2018-12-19T11:08:25.788Z,7.97
2018-12-19T11:10:54.359Z,7.40
2018-12-19T11:13:22.486Z,7.40
2018-12-19T11:15:50.728Z,8.07
2018-12-19T11:18:19.050Z,7.57
2018-12-19T11:20:47.303Z,5.03
2018-12-19T11:23:15.735Z,8.23
2018-12-19T11:25:44.078Z,8.23
2018-12-19T11:28:13.807Z,7.60
2018-12-19T11:30:42.783Z,8.00
2018-12-19T11:33:12.207Z,7.03
2018-12-19T11:35:40.571Z,8.47
2018-12-19T11:38:08.815Z,7.83
2018-12-19T11:40:37.078Z,7.47
2018-12-19T11:43:05.271Z,8.67
2018-12-19T11:45:34.011Z,8.73
2018-12-19T11:48:03.147Z,8.73
2018-12-19T11:50:32.219Z,8.63
2018-12-19T11:53:00.751Z,8.47
2018-12-19T11:55:29.740Z,8.77
2018-12-19T11:57:58.614Z,8.63
2018-12-19T12:00:27.054Z,8.67
2018-12-19T12:02:55.967Z,8.80
2018-12-19T12:05:24.218Z,8.47
2018-12-19T12:07:52.503Z,9.67
2018-12-19T12:10:20.653Z,8.70
2018-12-19T12:12:48.699Z,8.87
2018-12-19T12:15:16.980Z,8.73
2018-12-19T12:17:45.099Z,8.87
2018-12-19T12:20:13.587Z,9.13
2018-12-19T12:22:43.194Z,9.97
2018-12-19T12:25:11.535Z,8.17
2018-12-19T12:27:39.859Z,9.10
2018-12-19T12:30:09.059Z,9.30
2018-12-19T12:32:37.935Z,9.37
2018-12-19T12:35:08.212Z,9.93
2018-12-19T12:37:36.584Z,9.77
2018-12-19T12:40:05.403Z,9.17
2018-12-19T12:42:33.509Z,9.87
2018-12-19T12:45:02.840Z,10.37
2018-12-19T12:47:31.635Z,9.87
2018-12-19T12:50:00.648Z,9.53
2018-12-19T12:52:29.783Z,9.37
2018-12-19T12:54:58.159Z,10.00
2018-12-19T12:57:26.371Z,9.80
2018-12-19T12:59:55.344Z,9.30
2018-12-19T13:02:23.423Z,10.43
2018-12-19T13:04:52.699Z,10.43
2018-12-19T13:07:21.294Z,10.13
2018-12-19T13:09:49.355Z,10.30
2018-12-19T13:12:17.745Z,11.20
2018-12-19T13:14:46.802Z,10.57
2018-12-19T13:17:15.003Z,10.60
2018-12-19T13:19:43.979Z,10.43
2018-12-19T13:22:13.094Z,10.27
2018-12-19T13:24:42.257Z,11.67
2018-12-19T13:27:10.347Z,10.43
2018-12-19T13:29:38.580Z,10.40
2018-12-19T13:32:07.750Z,11.50
2018-12-19T13:34:35.948Z,10.93
2018-12-19T13:37:04.455Z,10.83
2018-12-19T13:39:33.714Z,11.83
2018-12-19T13:42:05.632Z,10.40
2018-12-19T13:44:33.807Z,11.33
2018-12-19T13:47:02.003Z,11.33
2018-12-19T13:49:31.413Z,11.57
2018-12-19T13:52:00.543Z,12.13
2018-12-19T13:54:28.691Z,11.40
2018-12-19T13:56:57.138Z,11.43
2018-12-19T13:59:25.231Z,11.57
2018-12-19T14:01:54.504Z,11.30
2018-12-19T14:04:24.620Z,12.20
2018-12-19T14:06:52.959Z,12.43
2018-12-19T14:09:21.306Z,12.50
2018-12-19T14:11:49.503Z,11.57
2018-12-19T14:14:17.693Z,12.60
2018-12-19T14:16:47.206Z,11.97
2018-12-19T14:19:16.269Z,12.47
2018-12-19T14:21:45.230Z,11.87
2018-12-19T14:24:13.928Z,12.13
2018-12-19T14:26:42.165Z,13.30
2018-12-19T14:29:10.407Z,13.07
2018-12-19T14:31:39.671Z,12.93
2018-12-19T14:34:07.928Z,12.07
2018-12-19T14:36:36.075Z,13.07
2018-12-19T14:39:06.795Z,12.73
2018-12-19T14:42:37.495Z,12.50
2018-12-19T14:45:06.915Z,11.67
2018-12-19T14:47:35.246Z,12.87
2018-12-19T14:50:04.335Z,12.40
2018-12-19T14:52:33.686Z,12.27
2018-12-19T14:55:02.523Z,12.77
2018-12-19T14:57:30.763Z,13.65
2018-12-19T14:59:59.027Z,13.78
2018-12-19T15:02:27.119Z,13.60
2018-12-19T15:04:56.067Z,12.17
2018-12-19T15:07:24.387Z,13.10
2018-12-19T15:09:52.555Z,12.80
2018-12-19T15:12:25.824Z,13.20
2018-12-19T15:14:53.600Z,13.93
2018-12-19T15:17:21.724Z,12.90
2018-12-19T15:19:51.591Z,14.20
2018-12-19T15:22:20.882Z,12.87
2018-12-19T15:24:49.352Z,14.63
2018-12-19T15:27:17.680Z,14.53
2018-12-19T15:29:46.743Z,13.97
2018-12-19T15:32:15.703Z,12.40
2018-12-19T15:34:43.859Z,14.10
2018-12-19T15:37:13.038Z,13.80
2018-12-19T15:39:41.342Z,14.50
2018-12-19T15:42:09.507Z,13.13
2018-12-19T15:44:37.653Z,12.07
2018-12-19T15:47:06.175Z,12.50
2018-12-19T15:49:34.341Z,13.43
2018-12-19T15:52:03.663Z,11.80
2018-12-19T15:54:31.831Z,12.70
2018-12-19T15:57:00.355Z,11.90
2018-12-19T15:59:28.976Z,13.03
2018-12-19T16:01:57.504Z,12.87
2018-12-19T16:04:27.107Z,12.60
2018-12-19T16:06:55.811Z,13.07
2018-12-19T16:09:23.976Z,12.10
2018-12-19T16:11:52.634Z,14.07
2018-12-19T16:14:20.873Z,13.20
2018-12-19T16:16:50.175Z,13.40
2018-12-19T16:19:19.802Z,13.13
2018-12-19T16:21:48.219Z,11.57
2018-12-19T16:24:16.604Z,12.53
2018-12-19T16:26:46.057Z,12.07
2018-12-19T16:29:14.311Z,11.47
2018-12-19T16:31:43.739Z,12.20
2018-12-19T16:34:11.963Z,12.43
2018-12-19T16:36:40.130Z,11.90
2018-12-19T16:39:10.080Z,12.37
2018-12-19T16:41:38.233Z,12.10
2018-12-19T16:44:08.292Z,12.83
2018-12-19T16:46:36.424Z,11.40
2018-12-19T16:49:05.255Z,11.47
2018-12-19T16:51:33.634Z,12.00
2018-12-19T16:54:02.598Z,14.25
2018-12-19T16:56:31.243Z,13.33
2018-12-19T16:59:00.131Z,12.80
2018-12-19T17:01:28.811Z,11.90
2018-12-19T17:03:57.727Z,13.50
2018-12-19T17:06:26.375Z,12.90
2018-12-19T17:08:54.472Z,14.63
2018-12-19T17:11:24.031Z,17.82
2018-12-19T17:13:53.146Z,11.23
2018-12-19T17:16:21.439Z,11.50
2018-12-19T17:18:50.242Z,11.83
2018-12-19T17:21:18.655Z,10.80
2018-12-19T17:23:46.731Z,11.73
2018-12-19T17:26:15.383Z,11.77
2018-12-19T17:28:45.155Z,10.83
2018-12-19T17:31:13.631Z,11.23
2018-12-19T17:33:42.988Z,11.83
2018-12-19T17:36:11.683Z,11.00
2018-12-19T17:38:39.856Z,10.83
2018-12-19T17:41:08.877Z,11.00
2018-12-19T17:43:37.023Z,16.73
2018-12-19T17:46:05.651Z,11.93
2018-12-19T17:48:34.836Z,11.83
2018-12-19T17:51:04.329Z,11.00
2018-12-19T17:53:32.673Z,12.00
2018-12-19T17:56:01.486Z,10.90
2018-12-19T17:58:30.725Z,11.33
2018-12-19T18:00:58.955Z,12.63
2018-12-19T18:03:27.539Z,12.53
2018-12-19T18:05:56.567Z,11.43
2018-12-19T18:08:25.179Z,11.50
2018-12-19T18:10:54.023Z,11.43
2018-12-19T18:13:22.183Z,11.60
2018-12-19T18:15:50.550Z,12.00
2018-12-19T18:18:18.645Z,11.67
2018-12-19T18:20:47.222Z,11.20
2018-12-19T18:23:15.579Z,11.97
2018-12-19T18:25:44.826Z,11.60
2018-12-19T18:28:13.999Z,11.43
2018-12-19T18:30:42.588Z,13.13
2018-12-19T18:33:10.731Z,11.50
2018-12-19T18:35:40.519Z,11.13
2018-12-19T18:38:09.376Z,12.30
2018-12-19T18:40:38.310Z,15.00
2018-12-19T18:43:12.700Z,14.37
2018-12-19T18:45:36.875Z,12.50
2018-12-19T18:48:05.735Z,11.20
2018-12-19T18:50:35.339Z,12.63
2018-12-19T18:53:04.457Z,11.77
2018-12-19T18:55:32.844Z,12.03
2018-12-19T18:58:02.247Z,11.13
2018-12-19T19:00:38.260Z,11.87
2018-12-19T19:03:06.557Z,13.23
2018-12-19T19:05:35.206Z,12.30
2018-12-19T19:08:03.975Z,12.03
2018-12-19T19:10:32.387Z,11.83
2018-12-19T19:13:00.703Z,11.87
2018-12-19T19:15:28.879Z,11.10
2018-12-19T19:17:57.935Z,11.47
2018-12-19T19:20:26.059Z,11.23
2018-12-19T19:22:54.324Z,14.17
2018-12-19T19:25:23.791Z,32.87
2018-12-19T19:27:51.872Z,18.40
2018-12-19T19:30:20.040Z,38.53
2018-12-19T19:32:48.875Z,19.27
2018-12-19T19:35:17.063Z,18.20
2018-12-19T19:37:45.205Z,17.07
2018-12-19T19:40:13.685Z,11.93
2018-12-19T19:42:41.927Z,20.37
2018-12-19T19:45:10.571Z,12.70
2018-12-19T19:47:39.289Z,13.37
2018-12-19T19:50:08.511Z,11.57
2018-12-19T19:52:37.303Z,11.60
2018-12-19T19:55:05.715Z,13.90
2018-12-19T19:57:34.784Z,13.63
2018-12-19T20:00:03.111Z,13.03
2018-12-19T20:02:31.567Z,12.87
2018-12-19T20:04:59.737Z,12.17
2018-12-19T20:07:28.183Z,10.90
2018-12-19T20:09:56.372Z,12.00
2018-12-19T20:12:24.636Z,11.37
2018-12-19T20:14:53.643Z,12.20
2018-12-19T20:24:31.048Z,11.63
2018-12-19T20:26:59.599Z,11.37
2018-12-19T20:29:27.988Z,11.53
2018-12-19T20:31:56.364Z,11.37
2018-12-19T20:34:25.224Z,11.50
2018-12-19T20:36:55.491Z,11.57
2018-12-19T20:39:23.879Z,10.47
2018-12-19T20:41:52.448Z,11.80
2018-12-19T20:44:23.043Z,10.97
2018-12-19T20:46:52.169Z,10.63
2018-12-19T20:49:20.353Z,10.97
2018-12-19T20:51:49.055Z,10.20
2018-12-19T20:54:17.896Z,11.50
2018-12-19T20:56:46.252Z,10.60
2018-12-19T21:00:18.599Z,10.97
2018-12-19T21:02:47.619Z,10.37
2018-12-19T21:05:16.375Z,11.73
2018-12-19T21:07:44.460Z,10.53
2018-12-19T21:10:13.124Z,11.17
2018-12-19T21:12:41.578Z,11.43
2018-12-19T21:15:10.783Z,10.13
2018-12-19T21:17:44.747Z,11.33
2018-12-19T21:20:13.810Z,10.70
2018-12-19T21:22:42.674Z,10.43
2018-12-19T21:25:11.183Z,10.03
2018-12-19T21:27:39.924Z,10.30
2018-12-19T21:30:09.783Z,9.97
2018-12-19T21:32:38.115Z,9.97
2018-12-19T21:35:06.555Z,11.03
2018-12-19T21:37:35.101Z,9.50
2018-12-19T21:40:04.127Z,10.57
2018-12-19T21:42:32.551Z,11.17
2018-12-19T21:45:01.031Z,10.87
2018-12-19T21:47:29.664Z,10.80
2018-12-19T21:49:57.983Z,10.23
2018-12-19T21:52:26.350Z,10.43
2018-12-19T21:54:55.335Z,10.60
2018-12-19T21:57:24.349Z,10.97
2018-12-19T21:59:53.487Z,9.77
2018-12-19T22:02:22.338Z,10.80
2018-12-19T22:04:50.910Z,13.03
2018-12-19T22:07:19.826Z,13.53
2018-12-19T22:09:48.259Z,11.90
2018-12-19T22:12:17.485Z,11.10
2018-12-19T22:14:47.388Z,10.20
2018-12-19T22:17:54.019Z,10.03
2018-12-19T22:20:23.941Z,10.37
2018-12-19T22:22:52.223Z,10.30
2018-12-19T22:25:20.512Z,10.80
2018-12-19T22:27:48.859Z,9.90
2018-12-19T22:30:17.275Z,11.03
2018-12-19T22:32:46.122Z,10.07
2018-12-19T22:35:16.683Z,9.93
2018-12-19T22:37:44.913Z,10.97
2018-12-19T22:40:13.140Z,10.57
2018-12-19T22:42:42.739Z,11.17
2018-12-19T22:45:11.030Z,10.17
2018-12-19T22:47:40.181Z,9.87
2018-12-19T22:50:09.127Z,10.87
2018-12-19T22:52:38.118Z,9.70
2018-12-19T22:55:06.808Z,10.03
2018-12-19T22:57:35.697Z,10.10
2018-12-19T23:00:08.683Z,10.43
2018-12-19T23:02:44.207Z,10.53
2018-12-19T23:05:12.386Z,10.13
2018-12-19T23:07:40.507Z,10.33
2018-12-19T23:12:50.796Z,9.93
2018-12-19T23:15:19.951Z,10.00
2018-12-19T23:17:48.946Z,10.60
2018-12-19T23:20:17.328Z,10.53
2018-12-19T23:22:45.939Z,9.07
2018-12-19T23:25:14.446Z,10.33
2018-12-19T23:27:43.616Z,10.07
2018-12-19T23:30:11.845Z,10.27
2018-12-19T23:32:39.924Z,9.50
2018-12-19T23:35:09.287Z,10.10
2018-12-19T23:37:37.783Z,11.20
2018-12-19T23:40:06.068Z,10.17
2018-12-19T23:42:34.534Z,10.37
2018-12-19T23:45:02.879Z,9.67
2018-12-19T23:47:31.313Z,10.77
2018-12-19T23:49:59.829Z,10.23
2018-12-19T23:52:28.457Z,10.03
2018-12-19T23:54:56.693Z,10.47
2018-12-19T23:57:27.270Z,10.33
2018-12-19T23:59:55.652Z,11.03
